CFG2DK LEPA-EDDF
Flight info
| Callsign | CFG2DK |
|---|---|
| Flight time | 1h 48m |
| Altitude | 32000 |
| Route | MEROS DCT LAPIT DCT CHELY DCT LUMAS DCT MAXIR DCT LUSOL DCT BODRU DCT OKTET DCT IRMAR/N0451F360 DCT KINES DCT VANAS DCT ESOKO DCT GODRA/N0445F330 DCT LADOL/N0451F360 T163 EMPAX EMPAX5B |
| Aircraft | A320/M-SDE3FGHIJ1LORVWXYZ/SB1 |
Departure
| Time | 2026-05-07 09:00 |
|---|---|
| Airport | Palma de Mallorca Airport (LEPA) |
Arrival
| Time | 2026-05-07 10:49 |
|---|---|
| Airport | Frankfurt Main Airport (EDDF) |
| Time | Latitude | Longitude | Altitude | Speed | Heading |
|---|---|---|---|---|---|
| 2026-05-07 07:48 | 39.55018 | 2.73494 | 35 ft | 0 kts | 164° |
| 2026-05-07 08:48 | 39.55028 | 2.73490 | 35 ft | 4 kts | 159° |
| 2026-05-07 08:49 | 39.55050 | 2.73474 | 35 ft | 4 kts | 127° |
| 2026-05-07 08:49 | 39.55057 | 2.73448 | 35 ft | 3 kts | 63° |
| 2026-05-07 08:49 | 39.55053 | 2.73439 | 34 ft | 0 kts | 58° |
| 2026-05-07 08:53 | 39.55065 | 2.73464 | 35 ft | 10 kts | 58° |
| 2026-05-07 08:53 | 39.55107 | 2.73550 | 35 ft | 11 kts | 57° |
| 2026-05-07 08:53 | 39.55143 | 2.73623 | 36 ft | 10 kts | 57° |
| 2026-05-07 08:54 | 39.55181 | 2.73705 | 36 ft | 11 kts | 75° |
| 2026-05-07 08:54 | 39.55174 | 2.73800 | 36 ft | 11 kts | 64° |
| 2026-05-07 08:54 | 39.55143 | 2.73876 | 36 ft | 13 kts | 148° |
| 2026-05-07 08:54 | 39.55063 | 2.73940 | 36 ft | 14 kts | 148° |
| 2026-05-07 08:55 | 39.54975 | 2.74010 | 36 ft | 15 kts | 148° |
| 2026-05-07 08:55 | 39.54884 | 2.74082 | 36 ft | 13 kts | 148° |
| 2026-05-07 08:55 | 39.54799 | 2.74120 | 36 ft | 13 kts | 197° |
| 2026-05-07 08:55 | 39.54746 | 2.74042 | 36 ft | 11 kts | 238° |
| 2026-05-07 08:56 | 39.54708 | 2.73964 | 36 ft | 9 kts | 238° |
| 2026-05-07 08:56 | 39.54671 | 2.73882 | 36 ft | 15 kts | 239° |
| 2026-05-07 08:56 | 39.54615 | 2.73759 | 36 ft | 15 kts | 239° |
| 2026-05-07 08:56 | 39.54564 | 2.73647 | 36 ft | 14 kts | 238° |
| 2026-05-07 08:57 | 39.54517 | 2.73550 | 36 ft | 12 kts | 238° |
| 2026-05-07 08:57 | 39.54476 | 2.73465 | 36 ft | 10 kts | 237° |
| 2026-05-07 08:57 | 39.54434 | 2.73378 | 36 ft | 12 kts | 238° |
| 2026-05-07 08:57 | 39.54391 | 2.73285 | 36 ft | 14 kts | 240° |
| 2026-05-07 08:58 | 39.54346 | 2.73186 | 36 ft | 12 kts | 238° |
| 2026-05-07 08:58 | 39.54302 | 2.73097 | 36 ft | 14 kts | 238° |
| 2026-05-07 08:58 | 39.54243 | 2.73016 | 36 ft | 12 kts | 197° |
| 2026-05-07 08:58 | 39.54188 | 2.73066 | 36 ft | 10 kts | 114° |
| 2026-05-07 08:59 | 39.54171 | 2.73161 | 36 ft | 11 kts | 96° |
| 2026-05-07 08:59 | 39.54169 | 2.73265 | 35 ft | 9 kts | 72° |
| 2026-05-07 08:59 | 39.54177 | 2.73284 | 33 ft | 0 kts | 58° |
| 2026-05-07 08:59 | 39.54183 | 2.73297 | 34 ft | 12 kts | 58° |
| 2026-05-07 09:00 | 39.54362 | 2.73674 | 34 ft | 82 kts | 58° |
| 2026-05-07 09:00 | 39.54764 | 2.74517 | 35 ft | 135 kts | 58° |
| 2026-05-07 09:00 | 39.55325 | 2.75695 | 262 ft | 158 kts | 59° |
| 2026-05-07 09:00 | 39.55882 | 2.76905 | 1014 ft | 156 kts | 59° |
| 2026-05-07 09:01 | 39.56451 | 2.78170 | 1453 ft | 174 kts | 60° |
| 2026-05-07 09:01 | 39.57098 | 2.79597 | 1795 ft | 193 kts | 59° |
| 2026-05-07 09:01 | 39.57800 | 2.81125 | 2415 ft | 201 kts | 60° |
| 2026-05-07 09:01 | 39.58524 | 2.82681 | 3211 ft | 202 kts | 60° |
| 2026-05-07 09:02 | 39.59253 | 2.84264 | 3933 ft | 207 kts | 61° |
| 2026-05-07 09:02 | 39.59988 | 2.85886 | 4660 ft | 210 kts | 62° |
| 2026-05-07 09:02 | 39.60733 | 2.87534 | 5387 ft | 214 kts | 62° |
| 2026-05-07 09:02 | 39.61493 | 2.89216 | 6050 ft | 219 kts | 61° |
| 2026-05-07 09:03 | 39.62274 | 2.90941 | 6702 ft | 226 kts | 61° |
| 2026-05-07 09:03 | 39.63094 | 2.92804 | 7000 ft | 250 kts | 62° |
| 2026-05-07 09:03 | 39.63981 | 2.94855 | 7393 ft | 269 kts | 62° |
| 2026-05-07 09:03 | 39.64909 | 2.97006 | 8043 ft | 277 kts | 62° |
| 2026-05-07 09:04 | 39.65859 | 2.99207 | 8769 ft | 282 kts | 62° |
| 2026-05-07 09:04 | 39.66828 | 3.01453 | 9493 ft | 288 kts | 62° |
| 2026-05-07 09:04 | 39.67817 | 3.03743 | 10165 ft | 295 kts | 62° |
| 2026-05-07 09:04 | 39.68856 | 3.06155 | 10402 ft | 318 kts | 62° |
| 2026-05-07 09:05 | 39.69973 | 3.08751 | 10594 ft | 341 kts | 62° |
| 2026-05-07 09:05 | 39.71158 | 3.11491 | 11004 ft | 353 kts | 62° |
| 2026-05-07 09:05 | 39.72376 | 3.14301 | 11614 ft | 359 kts | 61° |
| 2026-05-07 09:05 | 39.73606 | 3.17145 | 12258 ft | 364 kts | 62° |
| 2026-05-07 09:06 | 39.74854 | 3.20042 | 12866 ft | 369 kts | 62° |
| 2026-05-07 09:06 | 39.76113 | 3.22968 | 13524 ft | 373 kts | 62° |
| 2026-05-07 09:06 | 39.77427 | 3.25901 | 14099 ft | 378 kts | 56° |
| 2026-05-07 09:06 | 39.79076 | 3.28581 | 14659 ft | 382 kts | 49° |
| 2026-05-07 09:07 | 39.80828 | 3.31198 | 15223 ft | 385 kts | 48° |
| 2026-05-07 09:07 | 39.82600 | 3.33840 | 15774 ft | 390 kts | 48° |
| 2026-05-07 09:07 | 39.84390 | 3.36511 | 16316 ft | 394 kts | 48° |
| 2026-05-07 09:07 | 39.86197 | 3.39215 | 16851 ft | 398 kts | 48° |
| 2026-05-07 09:08 | 39.88022 | 3.41950 | 17381 ft | 402 kts | 48° |
| 2026-05-07 09:08 | 39.89861 | 3.44716 | 17912 ft | 406 kts | 48° |
| 2026-05-07 09:08 | 39.91716 | 3.47512 | 18406 ft | 410 kts | 48° |
| 2026-05-07 09:08 | 39.93589 | 3.50340 | 18843 ft | 414 kts | 48° |
| 2026-05-07 09:09 | 39.95481 | 3.53202 | 19270 ft | 419 kts | 48° |
| 2026-05-07 09:09 | 39.97389 | 3.56089 | 19683 ft | 423 kts | 48° |
| 2026-05-07 09:09 | 39.99318 | 3.59010 | 20129 ft | 426 kts | 49° |
| 2026-05-07 09:09 | 40.00600 | 3.60953 | 20413 ft | 428 kts | 49° |
| 2026-05-07 09:10 | 40.02549 | 3.63911 | 20828 ft | 432 kts | 49° |
| 2026-05-07 09:10 | 40.04520 | 3.66899 | 21240 ft | 436 kts | 49° |
| 2026-05-07 09:10 | 40.06509 | 3.69914 | 21638 ft | 440 kts | 49° |
| 2026-05-07 09:10 | 40.08516 | 3.72961 | 22026 ft | 444 kts | 49° |
| 2026-05-07 09:11 | 40.10538 | 3.76036 | 22414 ft | 448 kts | 49° |
| 2026-05-07 09:11 | 40.12578 | 3.79140 | 22795 ft | 452 kts | 49° |
| 2026-05-07 09:11 | 40.14635 | 3.82270 | 23180 ft | 455 kts | 48° |
| 2026-05-07 09:11 | 40.16701 | 3.85419 | 23580 ft | 458 kts | 48° |
| 2026-05-07 09:12 | 40.18782 | 3.88594 | 23907 ft | 461 kts | 48° |
| 2026-05-07 09:12 | 40.20877 | 3.91796 | 24209 ft | 465 kts | 48° |
| 2026-05-07 09:12 | 40.22990 | 3.95028 | 24514 ft | 469 kts | 48° |
| 2026-05-07 09:12 | 40.25111 | 3.98279 | 24838 ft | 471 kts | 48° |
| 2026-05-07 09:13 | 40.27248 | 4.01549 | 25156 ft | 474 kts | 48° |
| 2026-05-07 09:13 | 40.29395 | 4.04835 | 25475 ft | 476 kts | 48° |
| 2026-05-07 09:13 | 40.31581 | 4.08189 | 25799 ft | 478 kts | 48° |
| 2026-05-07 09:13 | 40.33716 | 4.11466 | 26100 ft | 480 kts | 48° |
| 2026-05-07 09:14 | 40.35890 | 4.14807 | 26420 ft | 483 kts | 48° |
| 2026-05-07 09:14 | 40.38067 | 4.18165 | 26725 ft | 485 kts | 49° |
| 2026-05-07 09:14 | 40.40258 | 4.21552 | 27038 ft | 487 kts | 49° |
| 2026-05-07 09:14 | 40.42480 | 4.25001 | 27346 ft | 490 kts | 49° |
| 2026-05-07 09:15 | 40.44660 | 4.28380 | 27636 ft | 492 kts | 48° |
| 2026-05-07 09:15 | 40.47056 | 4.31591 | 27911 ft | 492 kts | 38° |
| 2026-05-07 09:15 | 40.49786 | 4.34287 | 28197 ft | 491 kts | 29° |
| 2026-05-07 09:15 | 40.52823 | 4.36444 | 28475 ft | 489 kts | 20° |
| 2026-05-07 09:16 | 40.56004 | 4.37964 | 28736 ft | 485 kts | 11° |
| 2026-05-07 09:16 | 40.59293 | 4.38889 | 28991 ft | 483 kts | 5° |
| 2026-05-07 09:16 | 40.62613 | 4.39673 | 29253 ft | 485 kts | 5° |
| 2026-05-07 09:16 | 40.65896 | 4.40452 | 29505 ft | 487 kts | 5° |
| 2026-05-07 09:17 | 40.69240 | 4.41249 | 29758 ft | 489 kts | 5° |
| 2026-05-07 09:17 | 40.72602 | 4.42057 | 30009 ft | 491 kts | 5° |
| 2026-05-07 09:17 | 40.75968 | 4.42872 | 30240 ft | 493 kts | 5° |
| 2026-05-07 09:17 | 40.79339 | 4.43689 | 30549 ft | 492 kts | 5° |
| 2026-05-07 09:18 | 40.82705 | 4.44501 | 30877 ft | 491 kts | 5° |
| 2026-05-07 09:18 | 40.86060 | 4.45310 | 31193 ft | 490 kts | 5° |
| 2026-05-07 09:18 | 40.89413 | 4.46117 | 31505 ft | 489 kts | 5° |
| 2026-05-07 09:18 | 40.92761 | 4.46923 | 31816 ft | 489 kts | 5° |
| 2026-05-07 09:19 | 40.96107 | 4.47729 | 31984 ft | 488 kts | 5° |
| 2026-05-07 09:19 | 40.99426 | 4.48534 | 32031 ft | 483 kts | 5° |
| 2026-05-07 09:19 | 41.06021 | 4.50142 | 32041 ft | 481 kts | 5° |
| 2026-05-07 09:20 | 41.12584 | 4.51741 | 32034 ft | 480 kts | 5° |
| 2026-05-07 09:20 | 41.19151 | 4.53335 | 32028 ft | 479 kts | 5° |
| 2026-05-07 09:21 | 41.25710 | 4.54938 | 32033 ft | 479 kts | 5° |
| 2026-05-07 09:21 | 41.32270 | 4.56548 | 32047 ft | 479 kts | 5° |
| 2026-05-07 09:22 | 41.38822 | 4.58154 | 32034 ft | 478 kts | 5° |
| 2026-05-07 09:22 | 41.45366 | 4.59754 | 32037 ft | 478 kts | 5° |
| 2026-05-07 09:23 | 41.51903 | 4.61366 | 32061 ft | 477 kts | 5° |
| 2026-05-07 09:23 | 41.58430 | 4.62985 | 32052 ft | 477 kts | 5° |
| 2026-05-07 09:24 | 41.64947 | 4.64589 | 32044 ft | 476 kts | 5° |
| 2026-05-07 09:24 | 41.71448 | 4.66340 | 32057 ft | 479 kts | 12° |
| 2026-05-07 09:25 | 41.77560 | 4.70039 | 32052 ft | 487 kts | 28° |
| 2026-05-07 09:25 | 41.83363 | 4.74727 | 32040 ft | 487 kts | 27° |
| 2026-05-07 09:26 | 41.89168 | 4.79404 | 32052 ft | 487 kts | 27° |
| 2026-05-07 09:26 | 41.94934 | 4.84044 | 32046 ft | 486 kts | 27° |
| 2026-05-07 09:27 | 42.00735 | 4.88723 | 32039 ft | 486 kts | 27° |
| 2026-05-07 09:28 | 42.09424 | 4.95769 | 32042 ft | 486 kts | 27° |
| 2026-05-07 09:28 | 42.15210 | 5.00465 | 32043 ft | 485 kts | 27° |
| 2026-05-07 09:29 | 42.20989 | 5.05169 | 32040 ft | 485 kts | 27° |
| 2026-05-07 09:29 | 42.26758 | 5.09882 | 32032 ft | 485 kts | 27° |
| 2026-05-07 09:30 | 42.32524 | 5.14601 | 32042 ft | 484 kts | 27° |
| 2026-05-07 09:30 | 42.38279 | 5.19318 | 32039 ft | 484 kts | 27° |
| 2026-05-07 09:31 | 42.44032 | 5.24046 | 32023 ft | 483 kts | 27° |
| 2026-05-07 09:31 | 42.49815 | 5.28809 | 32049 ft | 483 kts | 27° |
| 2026-05-07 09:32 | 42.55557 | 5.33542 | 32035 ft | 483 kts | 27° |
| 2026-05-07 09:32 | 42.61251 | 5.38250 | 32026 ft | 483 kts | 27° |
| 2026-05-07 09:33 | 42.66982 | 5.43001 | 32020 ft | 482 kts | 27° |
| 2026-05-07 09:33 | 42.72710 | 5.47756 | 32016 ft | 482 kts | 27° |
| 2026-05-07 09:34 | 42.78436 | 5.52516 | 32015 ft | 483 kts | 27° |
| 2026-05-07 09:34 | 42.84163 | 5.57294 | 32012 ft | 483 kts | 27° |
| 2026-05-07 09:35 | 42.89883 | 5.62081 | 32035 ft | 483 kts | 27° |
| 2026-05-07 09:35 | 42.95608 | 5.66874 | 32025 ft | 482 kts | 27° |
| 2026-05-07 09:36 | 43.01318 | 5.71674 | 32011 ft | 482 kts | 27° |
| 2026-05-07 09:36 | 43.07033 | 5.76487 | 32001 ft | 482 kts | 27° |
| 2026-05-07 09:37 | 43.12744 | 5.81299 | 32011 ft | 482 kts | 27° |
| 2026-05-07 09:37 | 43.18452 | 5.86124 | 32008 ft | 482 kts | 27° |
| 2026-05-07 09:38 | 43.24156 | 5.90955 | 32001 ft | 482 kts | 27° |
| 2026-05-07 09:38 | 43.29849 | 5.95793 | 32017 ft | 481 kts | 27° |
| 2026-05-07 09:39 | 43.35543 | 6.00610 | 32009 ft | 479 kts | 24° |
| 2026-05-07 09:39 | 43.41650 | 6.03893 | 32004 ft | 466 kts | 7° |
| 2026-05-07 09:40 | 43.48003 | 6.04905 | 32016 ft | 458 kts | 358° |
| 2026-05-07 09:40 | 43.54353 | 6.05536 | 32008 ft | 458 kts | 358° |
| 2026-05-07 09:41 | 43.60701 | 6.06176 | 31999 ft | 457 kts | 358° |
| 2026-05-07 09:41 | 43.67048 | 6.06826 | 32012 ft | 457 kts | 358° |
| 2026-05-07 09:42 | 43.73389 | 6.07476 | 32003 ft | 458 kts | 359° |
| 2026-05-07 09:42 | 43.79647 | 6.09605 | 31992 ft | 472 kts | 17° |
| 2026-05-07 09:43 | 43.85587 | 6.13597 | 31980 ft | 475 kts | 20° |
| 2026-05-07 09:43 | 43.91523 | 6.17632 | 32007 ft | 475 kts | 20° |
| 2026-05-07 09:44 | 43.97456 | 6.21679 | 31998 ft | 475 kts | 20° |
| 2026-05-07 09:44 | 44.03379 | 6.25736 | 31995 ft | 475 kts | 20° |
| 2026-05-07 09:45 | 44.09293 | 6.29798 | 32015 ft | 474 kts | 21° |
| 2026-05-07 09:45 | 44.15201 | 6.33861 | 32008 ft | 473 kts | 20° |
| 2026-05-07 09:46 | 44.21090 | 6.37925 | 31989 ft | 473 kts | 21° |
| 2026-05-07 09:46 | 44.26978 | 6.42000 | 32011 ft | 472 kts | 21° |
| 2026-05-07 09:47 | 44.32854 | 6.46067 | 32012 ft | 471 kts | 21° |
| 2026-05-07 09:47 | 44.38721 | 6.50134 | 31982 ft | 470 kts | 21° |
| 2026-05-07 09:48 | 44.44585 | 6.54208 | 32010 ft | 471 kts | 21° |
| 2026-05-07 09:48 | 44.50439 | 6.58285 | 32011 ft | 470 kts | 21° |
| 2026-05-07 09:49 | 44.56280 | 6.62373 | 32006 ft | 468 kts | 21° |
| 2026-05-07 09:49 | 44.62103 | 6.66454 | 32000 ft | 467 kts | 21° |
| 2026-05-07 09:50 | 44.67921 | 6.70533 | 31998 ft | 467 kts | 21° |
| 2026-05-07 09:50 | 44.73761 | 6.74629 | 32108 ft | 473 kts | 21° |
| 2026-05-07 09:50 | 44.76762 | 6.76495 | 32360 ft | 469 kts | 14° |
| 2026-05-07 09:51 | 44.79870 | 6.77791 | 32699 ft | 463 kts | 6° |
| 2026-05-07 09:51 | 44.83029 | 6.78511 | 33053 ft | 456 kts | 359° |
| 2026-05-07 09:51 | 44.86175 | 6.78654 | 33366 ft | 450 kts | 351° |
| 2026-05-07 09:51 | 44.89299 | 6.78442 | 33663 ft | 449 kts | 351° |
| 2026-05-07 09:52 | 44.92415 | 6.78224 | 33951 ft | 449 kts | 351° |
| 2026-05-07 09:52 | 44.94479 | 6.78081 | 34085 ft | 448 kts | 351° |
| 2026-05-07 09:52 | 44.97594 | 6.77868 | 34315 ft | 449 kts | 351° |
| 2026-05-07 09:52 | 45.00718 | 6.77662 | 34535 ft | 449 kts | 351° |
| 2026-05-07 09:53 | 45.03841 | 6.77461 | 34752 ft | 450 kts | 352° |
| 2026-05-07 09:53 | 45.06969 | 6.77262 | 34981 ft | 450 kts | 352° |
| 2026-05-07 09:53 | 45.10097 | 6.77063 | 35163 ft | 450 kts | 352° |
| 2026-05-07 09:53 | 45.13226 | 6.76863 | 35403 ft | 451 kts | 352° |
| 2026-05-07 09:54 | 45.16360 | 6.76656 | 35614 ft | 451 kts | 352° |
| 2026-05-07 09:54 | 45.19491 | 6.76445 | 35845 ft | 451 kts | 352° |
| 2026-05-07 09:54 | 45.22626 | 6.76230 | 36003 ft | 451 kts | 352° |
| 2026-05-07 09:55 | 45.28893 | 6.75805 | 36032 ft | 450 kts | 352° |
| 2026-05-07 09:55 | 45.35156 | 6.75390 | 36040 ft | 450 kts | 352° |
| 2026-05-07 09:56 | 45.41424 | 6.75046 | 36036 ft | 453 kts | 357° |
| 2026-05-07 09:56 | 45.47660 | 6.76756 | 36045 ft | 464 kts | 17° |
| 2026-05-07 09:57 | 45.53423 | 6.81077 | 36040 ft | 470 kts | 26° |
| 2026-05-07 09:57 | 45.59081 | 6.85768 | 36053 ft | 470 kts | 26° |
| 2026-05-07 09:58 | 45.64740 | 6.90458 | 36053 ft | 470 kts | 26° |
| 2026-05-07 09:58 | 45.70391 | 6.95166 | 36036 ft | 470 kts | 26° |
| 2026-05-07 09:59 | 45.76041 | 6.99879 | 36051 ft | 470 kts | 26° |
| 2026-05-07 09:59 | 45.81688 | 7.04614 | 36042 ft | 470 kts | 27° |
| 2026-05-07 10:00 | 45.87323 | 7.09352 | 36033 ft | 470 kts | 27° |
| 2026-05-07 10:00 | 45.92954 | 7.14103 | 36027 ft | 470 kts | 27° |
| 2026-05-07 10:01 | 45.98586 | 7.18868 | 36038 ft | 470 kts | 27° |
| 2026-05-07 10:01 | 46.04223 | 7.23642 | 36035 ft | 470 kts | 27° |
| 2026-05-07 10:02 | 46.09859 | 7.28423 | 36029 ft | 470 kts | 27° |
| 2026-05-07 10:02 | 46.15493 | 7.33215 | 36034 ft | 470 kts | 27° |
| 2026-05-07 10:03 | 46.21123 | 7.38018 | 36035 ft | 470 kts | 27° |
| 2026-05-07 10:03 | 46.26755 | 7.42835 | 36032 ft | 470 kts | 27° |
| 2026-05-07 10:04 | 46.32386 | 7.47656 | 36036 ft | 470 kts | 27° |
| 2026-05-07 10:04 | 46.38010 | 7.52483 | 36054 ft | 470 kts | 28° |
| 2026-05-07 10:05 | 46.43585 | 7.57295 | 36045 ft | 469 kts | 28° |
| 2026-05-07 10:05 | 46.49191 | 7.62142 | 36038 ft | 469 kts | 28° |
| 2026-05-07 10:06 | 46.54799 | 7.66993 | 36036 ft | 469 kts | 28° |
| 2026-05-07 10:06 | 46.60444 | 7.71861 | 36031 ft | 468 kts | 27° |
| 2026-05-07 10:07 | 46.66165 | 7.76357 | 36028 ft | 467 kts | 24° |
| 2026-05-07 10:07 | 46.71913 | 7.80622 | 36032 ft | 467 kts | 24° |
| 2026-05-07 10:08 | 46.77681 | 7.84966 | 36030 ft | 467 kts | 25° |
| 2026-05-07 10:08 | 46.83430 | 7.89392 | 36029 ft | 467 kts | 25° |
| 2026-05-07 10:09 | 46.89169 | 7.93849 | 36027 ft | 467 kts | 25° |
| 2026-05-07 10:09 | 46.94903 | 7.98315 | 36057 ft | 467 kts | 25° |
| 2026-05-07 10:10 | 47.00640 | 8.02763 | 36053 ft | 466 kts | 25° |
| 2026-05-07 10:10 | 47.06375 | 8.07221 | 36053 ft | 466 kts | 25° |
| 2026-05-07 10:11 | 47.12104 | 8.11695 | 36058 ft | 466 kts | 26° |
| 2026-05-07 10:11 | 47.17825 | 8.16178 | 36058 ft | 466 kts | 26° |
| 2026-05-07 10:12 | 47.23543 | 8.20668 | 36057 ft | 466 kts | 26° |
| 2026-05-07 10:12 | 47.29255 | 8.25165 | 36052 ft | 466 kts | 26° |
| 2026-05-07 10:13 | 47.34971 | 8.29666 | 36060 ft | 465 kts | 26° |
| 2026-05-07 10:13 | 47.40671 | 8.34175 | 36051 ft | 465 kts | 26° |
| 2026-05-07 10:14 | 47.46378 | 8.38693 | 36044 ft | 465 kts | 26° |
| 2026-05-07 10:14 | 47.52089 | 8.43224 | 36049 ft | 466 kts | 26° |
| 2026-05-07 10:15 | 47.57795 | 8.47770 | 36059 ft | 466 kts | 26° |
| 2026-05-07 10:15 | 47.63501 | 8.52334 | 36054 ft | 466 kts | 26° |
| 2026-05-07 10:16 | 47.69202 | 8.56902 | 36047 ft | 466 kts | 26° |
| 2026-05-07 10:16 | 47.74902 | 8.61466 | 36047 ft | 465 kts | 26° |
| 2026-05-07 10:17 | 47.80599 | 8.66041 | 36043 ft | 465 kts | 26° |
| 2026-05-07 10:17 | 47.86289 | 8.70636 | 36040 ft | 465 kts | 27° |
| 2026-05-07 10:18 | 47.91985 | 8.75239 | 36046 ft | 465 kts | 27° |
| 2026-05-07 10:18 | 47.97673 | 8.79842 | 36042 ft | 465 kts | 27° |
| 2026-05-07 10:19 | 48.03356 | 8.84469 | 36037 ft | 465 kts | 27° |
| 2026-05-07 10:19 | 48.09034 | 8.89096 | 36033 ft | 465 kts | 27° |
| 2026-05-07 10:20 | 48.14754 | 8.93593 | 36037 ft | 463 kts | 21° |
| 2026-05-07 10:20 | 48.20939 | 8.95976 | 36030 ft | 458 kts | 4° |
| 2026-05-07 10:21 | 48.27281 | 8.96924 | 36025 ft | 458 kts | 4° |
| 2026-05-07 10:21 | 48.33632 | 8.97899 | 35473 ft | 462 kts | 4° |
| 2026-05-07 10:21 | 48.36863 | 8.98390 | 34493 ft | 470 kts | 4° |
| 2026-05-07 10:22 | 48.40121 | 8.98880 | 33684 ft | 471 kts | 4° |
| 2026-05-07 10:22 | 48.43378 | 8.99371 | 32874 ft | 469 kts | 4° |
| 2026-05-07 10:22 | 48.46621 | 8.99865 | 32102 ft | 467 kts | 4° |
| 2026-05-07 10:22 | 48.49832 | 9.00361 | 31513 ft | 461 kts | 4° |
| 2026-05-07 10:23 | 48.53006 | 9.00849 | 30866 ft | 456 kts | 5° |
| 2026-05-07 10:23 | 48.56144 | 9.01332 | 30271 ft | 450 kts | 5° |
| 2026-05-07 10:23 | 48.59237 | 9.01807 | 29660 ft | 444 kts | 5° |
| 2026-05-07 10:23 | 48.62294 | 9.02278 | 28964 ft | 439 kts | 5° |
| 2026-05-07 10:24 | 48.65303 | 9.02817 | 28271 ft | 434 kts | 7° |
| 2026-05-07 10:24 | 48.68276 | 9.03478 | 27575 ft | 429 kts | 8° |
| 2026-05-07 10:24 | 48.71212 | 9.04209 | 26897 ft | 426 kts | 8° |
| 2026-05-07 10:24 | 48.74118 | 9.04964 | 26242 ft | 422 kts | 8° |
| 2026-05-07 10:25 | 48.77004 | 9.05711 | 25570 ft | 419 kts | 8° |
| 2026-05-07 10:25 | 48.79879 | 9.06436 | 24883 ft | 418 kts | 7° |
| 2026-05-07 10:25 | 48.82727 | 9.07133 | 24361 ft | 412 kts | 7° |
| 2026-05-07 10:25 | 48.85542 | 9.07810 | 23838 ft | 407 kts | 7° |
| 2026-05-07 10:26 | 48.88315 | 9.08466 | 23315 ft | 401 kts | 6° |
| 2026-05-07 10:26 | 48.91022 | 9.08991 | 22836 ft | 394 kts | 4° |
| 2026-05-07 10:26 | 48.93723 | 9.09389 | 22381 ft | 387 kts | 2° |
| 2026-05-07 10:26 | 48.96384 | 9.09720 | 21932 ft | 381 kts | 2° |
| 2026-05-07 10:27 | 48.99008 | 9.10035 | 21481 ft | 376 kts | 2° |
| 2026-05-07 10:27 | 49.01600 | 9.10356 | 21032 ft | 372 kts | 2° |
| 2026-05-07 10:27 | 49.04197 | 9.10695 | 20568 ft | 368 kts | 2° |
| 2026-05-07 10:27 | 49.06739 | 9.11044 | 20113 ft | 365 kts | 2° |
| 2026-05-07 10:28 | 49.09259 | 9.11404 | 19654 ft | 363 kts | 3° |
| 2026-05-07 10:28 | 49.11768 | 9.11771 | 19185 ft | 361 kts | 3° |
| 2026-05-07 10:28 | 49.14265 | 9.12139 | 18718 ft | 360 kts | 3° |
| 2026-05-07 10:28 | 49.16757 | 9.12502 | 18247 ft | 359 kts | 3° |
| 2026-05-07 10:29 | 49.19210 | 9.12853 | 17733 ft | 358 kts | 3° |
| 2026-05-07 10:29 | 49.21680 | 9.13203 | 17262 ft | 356 kts | 3° |
| 2026-05-07 10:29 | 49.24137 | 9.13551 | 16799 ft | 353 kts | 3° |
| 2026-05-07 10:30 | 49.29026 | 9.14391 | 15872 ft | 351 kts | 11° |
| 2026-05-07 10:30 | 49.31370 | 9.15222 | 15393 ft | 350 kts | 11° |
| 2026-05-07 10:30 | 49.33739 | 9.16062 | 14918 ft | 349 kts | 11° |
| 2026-05-07 10:30 | 49.36108 | 9.16898 | 14432 ft | 349 kts | 12° |
| 2026-05-07 10:31 | 49.38466 | 9.17733 | 13964 ft | 348 kts | 11° |
| 2026-05-07 10:31 | 49.40825 | 9.18567 | 13446 ft | 348 kts | 11° |
| 2026-05-07 10:31 | 49.43179 | 9.19399 | 12961 ft | 346 kts | 11° |
| 2026-05-07 10:31 | 49.45512 | 9.20227 | 12487 ft | 343 kts | 11° |
| 2026-05-07 10:32 | 49.47826 | 9.21054 | 12021 ft | 340 kts | 11° |
| 2026-05-07 10:32 | 49.50126 | 9.21879 | 11553 ft | 338 kts | 11° |
| 2026-05-07 10:32 | 49.52411 | 9.22696 | 11092 ft | 336 kts | 11° |
| 2026-05-07 10:32 | 49.54669 | 9.23505 | 10836 ft | 330 kts | 10° |
| 2026-05-07 10:33 | 49.56896 | 9.24299 | 10763 ft | 328 kts | 10° |
| 2026-05-07 10:33 | 49.59119 | 9.25090 | 10651 ft | 327 kts | 10° |
| 2026-05-07 10:33 | 49.61336 | 9.25880 | 10520 ft | 326 kts | 10° |
| 2026-05-07 10:33 | 49.63529 | 9.26665 | 10384 ft | 318 kts | 10° |
| 2026-05-07 10:34 | 49.65642 | 9.27425 | 10268 ft | 306 kts | 9° |
| 2026-05-07 10:34 | 49.67679 | 9.28158 | 10143 ft | 295 kts | 9° |
| 2026-05-07 10:34 | 49.69650 | 9.28869 | 9955 ft | 288 kts | 9° |
| 2026-05-07 10:34 | 49.71596 | 9.29497 | 9633 ft | 283 kts | 1° |
| 2026-05-07 10:35 | 49.73541 | 9.29531 | 9273 ft | 278 kts | 355° |
| 2026-05-07 10:35 | 49.75469 | 9.29410 | 9017 ft | 276 kts | 354° |
| 2026-05-07 10:35 | 49.77389 | 9.29266 | 9013 ft | 277 kts | 354° |
| 2026-05-07 10:35 | 49.78664 | 9.29166 | 9008 ft | 277 kts | 354° |
| 2026-05-07 10:36 | 49.80617 | 9.29012 | 9006 ft | 278 kts | 354° |
| 2026-05-07 10:36 | 49.82545 | 9.28864 | 9024 ft | 277 kts | 354° |
| 2026-05-07 10:36 | 49.84465 | 9.28691 | 9013 ft | 276 kts | 354° |
| 2026-05-07 10:36 | 49.86352 | 9.28501 | 9010 ft | 275 kts | 354° |
| 2026-05-07 10:37 | 49.88287 | 9.28299 | 9013 ft | 275 kts | 354° |
| 2026-05-07 10:37 | 49.90198 | 9.28097 | 9014 ft | 275 kts | 354° |
| 2026-05-07 10:37 | 49.92085 | 9.27901 | 8973 ft | 274 kts | 354° |
| 2026-05-07 10:37 | 49.93980 | 9.27705 | 8584 ft | 272 kts | 354° |
| 2026-05-07 10:38 | 49.95893 | 9.27502 | 8196 ft | 271 kts | 354° |
| 2026-05-07 10:38 | 49.97767 | 9.27301 | 7829 ft | 269 kts | 354° |
| 2026-05-07 10:38 | 49.99607 | 9.26869 | 7453 ft | 266 kts | 345° |
| 2026-05-07 10:38 | 50.01374 | 9.26196 | 7118 ft | 265 kts | 344° |
| 2026-05-07 10:39 | 50.03153 | 9.25486 | 6792 ft | 263 kts | 344° |
| 2026-05-07 10:39 | 50.04897 | 9.24676 | 6421 ft | 260 kts | 337° |
| 2026-05-07 10:39 | 50.06551 | 9.23543 | 6004 ft | 259 kts | 334° |
| 2026-05-07 10:39 | 50.08176 | 9.22346 | 5614 ft | 258 kts | 334° |
| 2026-05-07 10:40 | 50.09754 | 9.21056 | 5225 ft | 256 kts | 323° |
| 2026-05-07 10:40 | 50.10930 | 9.19012 | 4989 ft | 254 kts | 306° |
| 2026-05-07 10:40 | 50.11923 | 9.16719 | 4980 ft | 256 kts | 304° |
| 2026-05-07 10:40 | 50.12910 | 9.14366 | 4988 ft | 258 kts | 304° |
| 2026-05-07 10:41 | 50.13886 | 9.12031 | 4988 ft | 259 kts | 304° |
| 2026-05-07 10:41 | 50.14866 | 9.09675 | 4990 ft | 259 kts | 304° |
| 2026-05-07 10:41 | 50.15780 | 9.07262 | 4985 ft | 259 kts | 294° |
| 2026-05-07 10:41 | 50.16197 | 9.04570 | 4986 ft | 250 kts | 275° |
| 2026-05-07 10:42 | 50.16030 | 9.01953 | 4990 ft | 238 kts | 256° |
| 2026-05-07 10:42 | 50.15483 | 8.99540 | 4992 ft | 235 kts | 252° |
| 2026-05-07 10:42 | 50.14926 | 8.97144 | 4994 ft | 235 kts | 252° |
| 2026-05-07 10:42 | 50.14368 | 8.94754 | 4997 ft | 235 kts | 252° |
| 2026-05-07 10:43 | 50.13814 | 8.92390 | 4996 ft | 226 kts | 252° |
| 2026-05-07 10:43 | 50.13291 | 8.90170 | 4998 ft | 210 kts | 252° |
| 2026-05-07 10:43 | 50.12806 | 8.88104 | 4991 ft | 197 kts | 253° |
| 2026-05-07 10:43 | 50.12341 | 8.86125 | 4793 ft | 192 kts | 253° |
| 2026-05-07 10:44 | 50.11884 | 8.84177 | 4554 ft | 191 kts | 253° |
| 2026-05-07 10:44 | 50.11429 | 8.82243 | 4288 ft | 190 kts | 252° |
| 2026-05-07 10:44 | 50.10976 | 8.80323 | 4031 ft | 188 kts | 253° |
| 2026-05-07 10:44 | 50.10525 | 8.78411 | 3778 ft | 188 kts | 253° |
| 2026-05-07 10:45 | 50.10076 | 8.76507 | 3525 ft | 187 kts | 253° |
| 2026-05-07 10:45 | 50.09626 | 8.74606 | 3271 ft | 186 kts | 253° |
| 2026-05-07 10:45 | 50.09181 | 8.72725 | 3008 ft | 184 kts | 253° |
| 2026-05-07 10:45 | 50.08744 | 8.70881 | 2787 ft | 178 kts | 252° |
| 2026-05-07 10:46 | 50.08322 | 8.69101 | 2533 ft | 172 kts | 253° |
| 2026-05-07 10:46 | 50.07924 | 8.67423 | 2299 ft | 162 kts | 253° |
| 2026-05-07 10:46 | 50.07547 | 8.65840 | 2095 ft | 150 kts | 253° |
| 2026-05-07 10:46 | 50.07196 | 8.64358 | 1890 ft | 143 kts | 253° |
| 2026-05-07 10:47 | 50.06856 | 8.62919 | 1683 ft | 140 kts | 253° |
| 2026-05-07 10:47 | 50.06520 | 8.61505 | 1482 ft | 140 kts | 252° |
| 2026-05-07 10:47 | 50.06182 | 8.60096 | 1297 ft | 139 kts | 253° |
| 2026-05-07 10:47 | 50.05852 | 8.58689 | 1093 ft | 138 kts | 254° |
| 2026-05-07 10:48 | 50.05519 | 8.57278 | 850 ft | 138 kts | 253° |
| 2026-05-07 10:48 | 50.05182 | 8.55869 | 714 ft | 139 kts | 252° |
| 2026-05-07 10:48 | 50.04845 | 8.54451 | 563 ft | 139 kts | 252° |
| 2026-05-07 10:48 | 50.04503 | 8.53033 | 390 ft | 139 kts | 251° |
| 2026-05-07 10:49 | 50.04194 | 8.51745 | 336 ft | 111 kts | 250° |
| 2026-05-07 10:49 | 50.04009 | 8.50981 | 325 ft | 56 kts | 250° |
| 2026-05-07 10:49 | 50.03909 | 8.50571 | 324 ft | 32 kts | 244° |
| 2026-05-07 10:49 | 50.03800 | 8.50328 | 323 ft | 22 kts | 225° |
| 2026-05-07 10:50 | 50.03713 | 8.50213 | 321 ft | 13 kts | 218° |
| 2026-05-07 10:50 | 50.03640 | 8.50198 | 322 ft | 11 kts | 140° |
| 2026-05-07 10:50 | 50.03635 | 8.50313 | 323 ft | 12 kts | 72° |
| 2026-05-07 10:50 | 50.03667 | 8.50449 | 323 ft | 15 kts | 69° |
| 2026-05-07 10:51 | 50.03705 | 8.50610 | 325 ft | 17 kts | 69° |
| 2026-05-07 10:51 | 50.03748 | 8.50781 | 326 ft | 15 kts | 69° |
| 2026-05-07 10:51 | 50.03787 | 8.50945 | 327 ft | 17 kts | 69° |
| 2026-05-07 10:51 | 50.03830 | 8.51127 | 331 ft | 18 kts | 70° |
| 2026-05-07 10:52 | 50.03873 | 8.51308 | 331 ft | 19 kts | 70° |
| 2026-05-07 10:52 | 50.03920 | 8.51506 | 335 ft | 21 kts | 69° |
| 2026-05-07 10:52 | 50.03972 | 8.51725 | 337 ft | 23 kts | 70° |
| 2026-05-07 10:52 | 50.04030 | 8.51968 | 337 ft | 25 kts | 70° |
| 2026-05-07 10:53 | 50.04094 | 8.52236 | 351 ft | 27 kts | 69° |
| 2026-05-07 10:53 | 50.04164 | 8.52523 | 350 ft | 29 kts | 69° |
| 2026-05-07 10:53 | 50.04235 | 8.52819 | 352 ft | 29 kts | 70° |
| 2026-05-07 10:53 | 50.04304 | 8.53107 | 362 ft | 28 kts | 70° |
| 2026-05-07 10:54 | 50.04370 | 8.53382 | 362 ft | 25 kts | 69° |
| 2026-05-07 10:54 | 50.04403 | 8.53634 | 361 ft | 22 kts | 84° |
| 2026-05-07 10:54 | 50.04417 | 8.53844 | 362 ft | 19 kts | 84° |
| 2026-05-07 10:54 | 50.04431 | 8.54050 | 367 ft | 18 kts | 84° |
| 2026-05-07 10:55 | 50.04443 | 8.54241 | 368 ft | 18 kts | 84° |
| 2026-05-07 10:55 | 50.04453 | 8.54426 | 362 ft | 17 kts | 90° |
| 2026-05-07 10:55 | 50.04431 | 8.54590 | 362 ft | 15 kts | 113° |
| 2026-05-07 10:55 | 50.04353 | 8.54737 | 362 ft | 20 kts | 144° |
| 2026-05-07 10:56 | 50.04232 | 8.54818 | 363 ft | 18 kts | 160° |
| 2026-05-07 10:56 | 50.04123 | 8.54879 | 365 ft | 12 kts | 160° |
| 2026-05-07 10:56 | 50.04071 | 8.54909 | 366 ft | 0 kts | 159° |
| 2026-05-07 10:58 | 50.04028 | 8.54940 | 363 ft | 12 kts | 142° |
| 2026-05-07 10:58 | 50.04027 | 8.55052 | 364 ft | 10 kts | 70° |
| 2026-05-07 10:58 | 50.04059 | 8.55187 | 364 ft | 19 kts | 69° |
| 2026-05-07 10:59 | 50.04109 | 8.55398 | 363 ft | 22 kts | 69° |
| 2026-05-07 10:59 | 50.04165 | 8.55627 | 364 ft | 23 kts | 69° |
| 2026-05-07 10:59 | 50.04223 | 8.55872 | 362 ft | 25 kts | 69° |
| 2026-05-07 10:59 | 50.04286 | 8.56132 | 366 ft | 26 kts | 69° |
| 2026-05-07 11:00 | 50.04352 | 8.56407 | 362 ft | 28 kts | 70° |
| 2026-05-07 11:00 | 50.04410 | 8.56653 | 364 ft | 24 kts | 69° |
| 2026-05-07 11:00 | 50.04457 | 8.56834 | 366 ft | 15 kts | 56° |
| 2026-05-07 11:00 | 50.04547 | 8.56892 | 361 ft | 14 kts | 13° |
| 2026-05-07 11:01 | 50.04639 | 8.56926 | 361 ft | 13 kts | 18° |
| 2026-05-07 11:01 | 50.04727 | 8.56986 | 362 ft | 14 kts | 25° |
| 2026-05-07 11:01 | 50.04810 | 8.57046 | 361 ft | 12 kts | 24° |
| 2026-05-07 11:01 | 50.04879 | 8.57096 | 364 ft | 8 kts | 28° |
| 2026-05-07 11:02 | 50.04893 | 8.57121 | 365 ft | 3 kts | 65° |
| 2026-05-07 11:02 | 50.04892 | 8.57149 | 365 ft | 0 kts | 112° |
| 2026-05-07 11:02 | 50.04885 | 8.57155 | 365 ft | 1 kts | 150° |
| 2026-05-07 11:02 | 50.04881 | 8.57156 | 364 ft | 0 kts | 164° |